Time;durP1;ratioP1;P1;durP2;ratioP2;P2;SDS_P1;SDS_P2;PMS_P1;PMS_P2;Temp;Humidity;BMP_temperature;BMP_pressure;BME280_temperature;BME280_humidity;BME280_pressure;Samples;Min_cycle;Max_cycle;Signal;HPM_P1;HPM_P2
2021/12/23 00:01:44;0.00;0.00;0.62;0.00;0.00;0.62;2.10;1.70;;;20.00;25.80;;;;;;2272156;61;20358;-56
2021/12/23 00:04:29;0.00;0.00;0.62;0.00;0.00;0.62;2.37;2.17;;;20.00;25.80;;;;;;2273253;61;20379;-55
2021/12/23 00:07:15;0.00;0.00;0.62;0.00;0.00;0.62;3.40;2.20;;;20.00;25.70;;;;;;2273299;61;20490;-58
2021/12/23 00:12:46;0.00;0.00;0.62;0.00;0.00;0.62;3.90;3.10;;;20.00;25.50;;;;;;2273099;61;20586;-58
2021/12/23 00:15:49;0.00;0.00;0.62;0.00;0.00;0.62;4.57;3.60;;;20.00;25.40;;;;;;2272438;61;20409;-57
2021/12/23 00:24:26;0.00;0.00;0.62;0.00;0.00;0.62;4.50;4.07;;;19.90;25.00;;;;;;2271933;61;20381;-54
2021/12/23 00:27:10;0.00;0.00;0.62;0.00;0.00;0.62;5.27;4.40;;;19.90;24.90;;;;;;2273264;61;20383;-56
2021/12/23 00:29:55;0.00;0.00;0.62;0.00;0.00;0.62;5.07;4.20;;;19.80;24.70;;;;;;2273042;61;20439;-56
2021/12/23 00:32:39;0.00;0.00;0.62;0.00;0.00;0.62;6.77;5.17;;;19.80;24.60;;;;;;2272373;61;20418;-56
2021/12/23 00:35:25;0.00;0.00;0.62;0.00;0.00;0.62;5.30;4.80;;;19.80;24.40;;;;;;2273087;61;20356;-57
2021/12/23 00:38:18;0.00;0.00;0.62;0.00;0.00;0.62;5.30;4.80;;;19.70;24.20;;;;;;2272029;61;20367;-57
2021/12/23 00:41:04;0.00;0.00;0.62;0.00;0.00;0.62;5.90;5.07;;;19.70;24.30;;;;;;2273255;61;20370;-57
2021/12/23 00:43:49;0.00;0.00;0.62;0.00;0.00;0.62;5.30;4.80;;;19.60;24.30;;;;;;2273146;61;20355;-53
2021/12/23 00:46:33;0.00;0.00;0.62;0.00;0.00;0.62;4.90;4.40;;;19.60;24.20;;;;;;2268969;61;20409;-56
2021/12/23 00:49:18;0.00;0.00;0.62;0.00;0.00;0.62;6.50;4.97;;;19.50;24.20;;;;;;2270548;61;20355;-57
2021/12/23 00:52:06;0.00;0.00;0.62;0.00;0.00;0.62;4.93;4.37;;;19.50;24.20;;;;;;2270109;61;20364;-54
2021/12/23 00:54:51;0.00;0.00;0.62;0.00;0.00;0.62;5.17;4.60;;;19.50;24.20;;;;;;2269662;61;20388;-56
2021/12/23 00:57:40;0.00;0.00;0.62;0.00;0.00;0.62;5.47;4.97;;;19.40;24.10;;;;;;2270368;61;20789;-59
2021/12/23 01:00:24;0.00;0.00;0.62;0.00;0.00;0.62;6.83;5.40;;;19.40;24.00;;;;;;2269275;61;20357;-55
2021/12/23 01:03:09;0.00;0.00;0.62;0.00;0.00;0.62;6.07;5.47;;;19.30;23.80;;;;;;2270588;61;20360;-58
2021/12/23 01:05:54;0.00;0.00;0.62;0.00;0.00;0.62;7.13;5.40;;;19.30;23.70;;;;;;2270126;61;20372;-57
2021/12/23 01:08:38;0.00;0.00;0.62;0.00;0.00;0.62;5.97;5.33;;;19.30;23.60;;;;;;2269034;61;20403;-57
2021/12/23 01:11:24;0.00;0.00;0.62;0.00;0.00;0.62;6.10;5.60;;;19.20;23.50;;;;;;2270196;61;20388;-59
2021/12/23 01:17:30;0.00;0.00;0.62;0.00;0.00;0.62;5.87;5.37;;;19.10;23.40;;;;;;2269705;61;20400;-56
2021/12/23 01:21:04;0.00;0.00;0.62;0.00;0.00;0.62;6.70;6.00;;;19.10;23.20;;;;;;2269489;61;20735;-55
2021/12/23 01:23:52;0.00;0.00;0.62;0.00;0.00;0.62;7.50;6.80;;;19.00;23.00;;;;;;2269062;61;20735;-59
2021/12/23 01:26:38;0.00;0.00;0.62;0.00;0.00;0.62;7.20;6.40;;;18.90;23.00;;;;;;2270106;61;20418;-56
2021/12/23 01:29:24;0.00;0.00;0.62;0.00;0.00;0.62;5.50;4.83;;;18.80;23.00;;;;;;2269754;61;20427;-56
2021/12/23 01:32:09;0.00;0.00;0.62;0.00;0.00;0.62;6.07;5.47;;;18.80;23.00;;;;;;2269326;61;20664;-53
2021/12/23 01:34:54;0.00;0.00;0.62;0.00;0.00;0.62;6.03;5.40;;;18.70;23.10;;;;;;2270026;61;20410;-55
2021/12/23 01:37:39;0.00;0.00;0.62;0.00;0.00;0.62;6.83;5.77;;;18.70;23.10;;;;;;2268916;61;20595;-58
2021/12/23 01:40:24;0.00;0.00;0.62;0.00;0.00;0.62;6.53;5.93;;;18.70;23.20;;;;;;2270162;61;20368;-57
2021/12/23 01:43:09;0.00;0.00;0.62;0.00;0.00;0.62;6.20;5.60;;;18.60;23.10;;;;;;2270202;61;20352;-56
2021/12/23 01:45:54;0.00;0.00;0.62;0.00;0.00;0.62;10.03;6.27;;;18.60;23.00;;;;;;2268791;61;20403;-56
2021/12/23 01:48:39;0.00;0.00;0.62;0.00;0.00;0.62;6.50;5.77;;;18.50;22.90;;;;;;2270129;61;20715;-57
2021/12/23 01:51:23;0.00;0.00;0.62;0.00;0.00;0.62;6.23;5.50;;;18.50;23.00;;;;;;2270146;61;20371;-56
2021/12/23 01:54:08;0.00;0.00;0.62;0.00;0.00;0.62;6.90;6.30;;;18.50;23.00;;;;;;2269475;61;20414;-54
2021/12/23 01:56:52;0.00;0.00;0.62;0.00;0.00;0.62;7.00;6.30;;;18.40;22.80;;;;;;2269733;61;20372;-55
2021/12/23 01:59:37;0.00;0.00;0.62;0.00;0.00;0.62;6.83;6.20;;;18.40;22.70;;;;;;2269243;61;20426;-59
2021/12/23 02:02:23;0.00;0.00;0.62;0.00;0.00;0.62;6.67;6.07;;;18.30;22.70;;;;;;2270148;61;20718;-58
2021/12/23 02:05:10;0.00;0.00;0.62;0.00;0.00;0.62;7.50;6.80;;;18.30;22.70;;;;;;2270055;61;20348;-57
2021/12/23 02:07:54;0.00;0.00;0.62;0.00;0.00;0.62;8.17;7.37;;;18.30;22.60;;;;;;2268870;61;20398;-58
2021/12/23 02:10:41;0.00;0.00;0.62;0.00;0.00;0.62;7.60;6.50;;;18.20;22.50;;;;;;2270100;61;20351;-58
2021/12/23 02:13:26;0.00;0.00;0.62;0.00;0.00;0.62;8.33;6.10;;;18.20;22.50;;;;;;2270243;61;20415;-55
2021/12/23 02:16:11;0.00;0.00;0.62;0.00;0.00;0.62;6.30;5.63;;;18.10;22.50;;;;;;2269137;61;20372;-58
2021/12/23 02:18:57;0.00;0.00;0.62;0.00;0.00;0.62;6.43;5.93;;;18.10;22.60;;;;;;2270140;61;20410;-58
2021/12/23 02:21:44;0.00;0.00;0.62;0.00;0.00;0.62;8.27;6.37;;;18.00;22.60;;;;;;2269149;61;20357;-58
2021/12/23 02:24:28;0.00;0.00;0.62;0.00;0.00;0.62;7.53;5.90;;;18.00;22.60;;;;;;2270043;61;20692;-55
2021/12/23 02:27:13;0.00;0.00;0.62;0.00;0.00;0.62;7.53;6.47;;;18.00;23.20;;;;;;2270257;61;20598;-54
2021/12/23 02:29:57;0.00;0.00;0.62;0.00;0.00;0.62;7.73;7.03;;;17.90;22.60;;;;;;2268860;61;20355;-54
2021/12/23 02:32:43;0.00;0.00;0.62;0.00;0.00;0.62;7.40;6.07;;;17.90;22.70;;;;;;2269926;61;20387;-58
2021/12/23 02:35:28;0.00;0.00;0.62;0.00;0.00;0.62;6.70;5.63;;;17.90;22.70;;;;;;2269943;61;20486;-55
2021/12/23 02:38:14;0.00;0.00;0.62;0.00;0.00;0.62;6.63;6.03;;;17.80;22.70;;;;;;2268824;61;20353;-57
2021/12/23 02:40:58;0.00;0.00;0.62;0.00;0.00;0.62;6.13;5.50;;;17.90;22.80;;;;;;2270188;61;20364;-53
2021/12/23 02:43:42;0.00;0.00;0.62;0.00;0.00;0.62;7.33;6.60;;;17.80;22.70;;;;;;2269273;61;20390;-59
2021/12/23 02:46:27;0.00;0.00;0.62;0.00;0.00;0.62;7.43;6.73;;;17.80;22.70;;;;;;2269692;61;20384;-56
2021/12/23 02:49:12;0.00;0.00;0.62;0.00;0.00;0.62;7.33;6.60;;;17.80;22.70;;;;;;2270265;61;20348;-53
2021/12/23 02:51:56;0.00;0.00;0.62;0.00;0.00;0.62;7.37;6.10;;;17.80;22.70;;;;;;2268679;61;20574;-56
2021/12/23 02:54:42;0.00;0.00;0.62;0.00;0.00;0.62;7.83;5.60;;;17.70;22.60;;;;;;2269967;61;20638;-56
2021/12/23 02:57:30;0.00;0.00;0.62;0.00;0.00;0.62;7.47;6.17;;;17.70;22.70;;;;;;2269954;61;20488;-58
2021/12/23 03:00:16;0.00;0.00;0.62;0.00;0.00;0.62;6.30;5.70;;;17.70;22.70;;;;;;2268693;61;20387;-59
2021/12/23 03:03:00;0.00;0.00;0.62;0.00;0.00;0.62;6.77;6.07;;;17.70;22.70;;;;;;2270087;61;20425;-58
2021/12/23 03:05:49;0.00;0.00;0.62;0.00;0.00;0.62;6.33;5.33;;;17.70;22.70;;;;;;2269147;61;20399;-57
2021/12/23 03:08:36;0.00;0.00;0.62;0.00;0.00;0.62;7.50;6.80;;;17.60;22.70;;;;;;2269702;61;20353;-57
2021/12/23 03:11:25;0.00;0.00;0.62;0.00;0.00;0.62;7.43;6.70;;;17.60;22.60;;;;;;2269926;61;20390;-55
2021/12/23 03:14:11;0.00;0.00;0.62;0.00;0.00;0.62;7.40;6.70;;;17.60;22.50;;;;;;2268544;61;20732;-54
2021/12/23 03:16:55;0.00;0.00;0.62;0.00;0.00;0.62;7.43;6.73;;;17.50;22.40;;;;;;2269821;61;20392;-54
2021/12/23 03:19:40;0.00;0.00;0.62;0.00;0.00;0.62;7.33;6.63;;;17.50;22.40;;;;;;2270011;61;20369;-58
2021/12/23 03:22:24;0.00;0.00;0.62;0.00;0.00;0.62;6.83;6.03;;;17.50;22.50;;;;;;2268630;61;20379;-57
2021/12/23 03:25:10;0.00;0.00;0.62;0.00;0.00;0.62;7.03;6.20;;;17.40;22.50;;;;;;2269798;61;20599;-58
2021/12/23 03:27:56;0.00;0.00;0.62;0.00;0.00;0.62;8.07;6.37;;;17.40;22.40;;;;;;2269254;61;20356;-53
2021/12/23 03:30:41;0.00;0.00;0.62;0.00;0.00;0.62;6.97;6.13;;;17.40;22.40;;;;;;2269569;61;20363;-56
2021/12/23 03:33:26;0.00;0.00;0.62;0.00;0.00;0.62;6.80;6.13;;;17.40;22.40;;;;;;2269826;61;20633;-59
2021/12/23 03:36:11;0.00;0.00;0.62;0.00;0.00;0.62;8.27;7.23;;;17.30;22.40;;;;;;2268473;61;20452;-57
2021/12/23 03:38:56;0.00;0.00;0.62;0.00;0.00;0.62;6.67;6.03;;;17.30;22.40;;;;;;2269927;61;20360;-56
2021/12/23 03:41:40;0.00;0.00;0.62;0.00;0.00;0.62;6.53;5.93;;;17.30;22.40;;;;;;2269849;61;20375;-57
2021/12/23 03:44:26;0.00;0.00;0.62;0.00;0.00;0.62;7.70;6.97;;;17.30;22.50;;;;;;2268581;61;20395;-57
2021/12/23 03:47:11;0.00;0.00;0.62;0.00;0.00;0.62;5.80;5.30;;;17.30;22.50;;;;;;2269881;61;20379;-55
2021/12/23 03:49:55;0.00;0.00;0.62;0.00;0.00;0.62;6.43;5.83;;;17.20;22.50;;;;;;2269614;61;20610;-56
2021/12/23 03:52:40;0.00;0.00;0.62;0.00;0.00;0.62;7.30;5.80;;;17.20;22.50;;;;;;2269117;61;20375;-54
2021/12/23 03:55:59;0.00;0.00;0.62;0.00;0.00;0.62;5.43;4.93;;;17.20;22.60;;;;;;2269716;61;20415;-53
2021/12/23 03:58:58;0.00;0.00;0.62;0.00;0.00;0.62;5.97;5.43;;;17.20;22.60;;;;;;2273596;60;20611;-58
2021/12/23 04:01:44;0.00;0.00;0.62;0.00;0.00;0.62;7.13;5.90;;;17.20;22.70;;;;;;2269808;61;20368;-57
2021/12/23 04:04:29;0.00;0.00;0.62;0.00;0.00;0.62;5.43;4.97;;;17.20;22.60;;;;;;2269805;61;20442;-59
2021/12/23 04:07:14;0.00;0.00;0.62;0.00;0.00;0.62;6.37;5.77;;;17.20;22.60;;;;;;2269050;61;20372;-59
2021/12/23 04:10:58;0.00;0.00;0.62;0.00;0.00;0.62;6.90;6.20;;;17.20;22.70;;;;;;2269848;61;20432;-54
2021/12/23 04:14:02;0.00;0.00;0.62;0.00;0.00;0.62;8.63;6.80;;;17.20;22.60;;;;;;2268350;61;20391;-56
2021/12/23 04:18:02;0.00;0.00;0.62;0.00;0.00;0.62;7.30;6.37;;;17.20;22.50;;;;;;2269646;61;20415;-55
2021/12/23 04:21:05;0.00;0.00;0.62;0.00;0.00;0.62;5.70;5.10;;;17.10;22.50;;;;;;2268741;61;20575;-58
2021/12/23 04:23:50;0.00;0.00;0.62;0.00;0.00;0.62;6.90;5.83;;;17.10;22.60;;;;;;2270583;61;20348;-54
2021/12/23 04:26:36;0.00;0.00;0.62;0.00;0.00;0.62;5.93;5.33;;;17.10;22.60;;;;;;2270108;61;20376;-54
2021/12/23 04:29:20;0.00;0.00;0.62;0.00;0.00;0.62;5.60;4.97;;;17.10;22.70;;;;;;2269449;61;20352;-54
2021/12/23 04:36:30;0.00;0.00;0.62;0.00;0.00;0.62;7.97;5.73;;;17.10;22.70;;;;;;2270448;61;20386;-57
2021/12/23 04:39:15;0.00;0.00;0.62;0.00;0.00;0.62;5.30;4.80;;;17.10;22.70;;;;;;2271646;61;20434;-58
2021/12/23 04:42:00;0.00;0.00;0.62;0.00;0.00;0.62;5.60;5.10;;;17.10;22.70;;;;;;2273898;61;20593;-58
2021/12/23 04:44:44;0.00;0.00;0.62;0.00;0.00;0.62;5.30;4.80;;;17.10;22.70;;;;;;2274088;61;20393;-56
2021/12/23 04:47:29;0.00;0.00;0.62;0.00;0.00;0.62;6.27;5.27;;;17.10;22.70;;;;;;2271278;61;20410;-56
2021/12/23 04:50:15;0.00;0.00;0.62;0.00;0.00;0.62;6.00;5.40;;;17.10;22.70;;;;;;2273111;61;20358;-59
2021/12/23 04:53:01;0.00;0.00;0.62;0.00;0.00;0.62;6.20;5.03;;;17.10;22.80;;;;;;2274372;61;20731;-53
2021/12/23 04:55:46;0.00;0.00;0.62;0.00;0.00;0.62;5.83;5.20;;;17.10;22.80;;;;;;2274300;61;20362;-56
2021/12/23 04:58:31;0.00;0.00;0.62;0.00;0.00;0.62;6.13;5.53;;;17.10;22.80;;;;;;2273131;61;20356;-56
2021/12/23 05:01:21;0.00;0.00;0.62;0.00;0.00;0.62;6.00;5.20;;;17.10;22.80;;;;;;2271153;61;20400;-59
2021/12/23 05:04:05;0.00;0.00;0.62;0.00;0.00;0.62;6.57;5.03;;;17.10;22.80;;;;;;2273555;61;20718;-54
2021/12/23 05:06:50;0.00;0.00;0.62;0.00;0.00;0.62;7.20;5.10;;;17.10;22.80;;;;;;2274019;61;20379;-56
2021/12/23 05:09:36;0.00;0.00;0.62;0.00;0.00;0.62;5.47;4.97;;;17.10;22.80;;;;;;2274192;61;20355;-58
2021/12/23 05:12:20;0.00;0.00;0.62;0.00;0.00;0.62;5.40;4.90;;;17.20;22.90;;;;;;2273160;61;20363;-56
2021/12/23 05:15:06;0.00;0.00;0.62;0.00;0.00;0.62;5.63;4.50;;;17.20;22.90;;;;;;2274057;61;20459;-56
2021/12/23 05:17:50;0.00;0.00;0.62;0.00;0.00;0.62;5.60;4.73;;;17.20;22.90;;;;;;2274178;61;20432;-56
2021/12/23 05:20:36;0.00;0.00;0.62;0.00;0.00;0.62;5.30;4.60;;;17.20;22.90;;;;;;2273109;61;20410;-57
2021/12/23 05:23:20;0.00;0.00;0.62;0.00;0.00;0.62;5.40;4.90;;;17.20;23.00;;;;;;2274219;61;20417;-54
2021/12/23 05:26:08;0.00;0.00;0.62;0.00;0.00;0.62;3.97;3.50;;;17.20;23.00;;;;;;2274121;61;20366;-57
2021/12/23 05:28:52;0.00;0.00;0.62;0.00;0.00;0.62;4.60;4.10;;;17.20;23.10;;;;;;2273782;61;20704;-54
2021/12/23 05:31:37;0.00;0.00;0.62;0.00;0.00;0.62;4.50;4.10;;;17.20;23.20;;;;;;2273945;61;20703;-57
2021/12/23 05:34:22;0.00;0.00;0.62;0.00;0.00;0.62;5.90;3.93;;;17.30;23.20;;;;;;2273056;61;20390;-58
2021/12/23 05:37:06;0.00;0.00;0.62;0.00;0.00;0.62;5.10;4.07;;;17.30;23.30;;;;;;2274146;61;20442;-58
2021/12/23 05:39:51;0.00;0.00;0.62;0.00;0.00;0.62;3.60;3.23;;;17.30;23.30;;;;;;2271588;61;20415;-54
2021/12/23 05:42:37;0.00;0.00;0.62;0.00;0.00;0.62;4.13;3.67;;;17.30;23.40;;;;;;2268969;61;20352;-57
2021/12/23 05:45:22;0.00;0.00;0.62;0.00;0.00;0.62;3.70;3.00;;;17.30;23.40;;;;;;2270108;61;20364;-59
2021/12/23 05:48:06;0.00;0.00;0.62;0.00;0.00;0.62;4.13;3.37;;;17.40;23.50;;;;;;2270348;61;20609;-56
2021/12/23 05:50:51;0.00;0.00;0.62;0.00;0.00;0.62;3.10;2.80;;;17.40;23.50;;;;;;2269476;61;20649;-55
2021/12/23 05:53:36;0.00;0.00;0.62;0.00;0.00;0.62;4.27;3.87;;;17.40;23.50;;;;;;2270080;61;20368;-56
2021/12/23 06:00:47;0.00;0.00;0.62;0.00;0.00;0.62;3.00;2.70;;;17.40;23.60;;;;;;2270136;61;20400;-56
2021/12/23 06:03:32;0.00;0.00;0.62;0.00;0.00;0.62;3.40;2.67;;;17.40;23.60;;;;;;2269289;61;20364;-58
2021/12/23 06:06:54;0.00;0.00;0.62;0.00;0.00;0.62;4.73;3.17;;;17.40;23.70;;;;;;2269718;61;20404;-56
2021/12/23 06:09:39;0.00;0.00;0.62;0.00;0.00;0.62;3.10;2.80;;;17.50;23.80;;;;;;2270211;61;20355;-54
2021/12/23 06:12:23;0.00;0.00;0.62;0.00;0.00;0.62;3.70;3.03;;;17.50;23.80;;;;;;2268540;61;20474;-57
2021/12/23 06:15:09;0.00;0.00;0.62;0.00;0.00;0.62;4.17;2.70;;;17.50;23.90;;;;;;2270001;61;20410;-56
2021/12/23 06:17:55;0.00;0.00;0.62;0.00;0.00;0.62;3.90;3.23;;;17.60;23.90;;;;;;2270004;61;20399;-58
2021/12/23 06:20:40;0.00;0.00;0.62;0.00;0.00;0.62;2.77;2.47;;;17.60;23.90;;;;;;2269523;61;20475;-57
2021/12/23 06:23:25;0.00;0.00;0.62;0.00;0.00;0.62;3.30;3.00;;;17.60;23.90;;;;;;2270181;61;20391;-55
2021/12/23 06:26:10;0.00;0.00;0.62;0.00;0.00;0.62;2.83;2.53;;;17.70;24.00;;;;;;2268460;61;20380;-57
2021/12/23 06:28:55;0.00;0.00;0.62;0.00;0.00;0.62;3.20;2.90;;;17.70;23.90;;;;;;2270075;61;20523;-53
2021/12/23 06:31:39;0.00;0.00;0.62;0.00;0.00;0.62;3.10;2.53;;;17.70;23.90;;;;;;2270030;61;20360;-54
2021/12/23 06:34:25;0.00;0.00;0.62;0.00;0.00;0.62;3.57;2.97;;;17.80;23.90;;;;;;2268516;61;20384;-57
2021/12/23 06:37:10;0.00;0.00;0.62;0.00;0.00;0.62;4.00;3.13;;;17.80;23.90;;;;;;2270192;61;20487;-59
2021/12/23 06:39:54;0.00;0.00;0.62;0.00;0.00;0.62;3.00;2.70;;;17.80;23.90;;;;;;2269986;61;20417;-57
2021/12/23 06:42:39;0.00;0.00;0.62;0.00;0.00;0.62;3.60;3.00;;;17.80;23.80;;;;;;2269208;61;20398;-54
2021/12/23 06:45:24;0.00;0.00;0.62;0.00;0.00;0.62;3.40;3.10;;;17.80;23.80;;;;;;2269980;61;20391;-56
2021/12/23 06:48:55;0.00;0.00;0.62;0.00;0.00;0.62;3.83;2.93;;;17.80;23.80;;;;;;2268898;61;20406;-59
2021/12/23 06:55:43;0.00;0.00;0.62;0.00;0.00;0.62;2.83;2.53;;;17.90;23.80;;;;;;2268353;61;20384;-57
2021/12/23 06:58:31;0.00;0.00;0.62;0.00;0.00;0.62;4.80;2.70;;;17.90;23.80;;;;;;2270010;61;20814;-58
2021/12/23 07:01:20;0.00;0.00;0.62;0.00;0.00;0.62;3.30;2.40;;;17.90;23.80;;;;;;2269928;61;20402;-54
2021/12/23 07:04:08;0.00;0.00;0.62;0.00;0.00;0.62;2.93;2.60;;;17.90;23.80;;;;;;2268570;61;20425;-54
2021/12/23 07:07:07;0.00;0.00;0.62;0.00;0.00;0.62;2.80;2.30;;;17.90;23.80;;;;;;2269971;61;20654;-59
2021/12/23 07:09:53;0.00;0.00;0.62;0.00;0.00;0.62;2.90;2.60;;;18.00;23.80;;;;;;2269224;61;20406;-55
2021/12/23 07:12:39;0.00;0.00;0.62;0.00;0.00;0.62;2.80;2.30;;;18.00;23.80;;;;;;2269618;61;20667;-55
2021/12/23 07:15:25;0.00;0.00;0.62;0.00;0.00;0.62;3.23;2.23;;;18.00;23.80;;;;;;2269810;61;20403;-50
2021/12/23 07:18:09;0.00;0.00;0.62;0.00;0.00;0.62;3.20;2.30;;;18.00;23.80;;;;;;2268520;61;20360;-57
2021/12/23 07:20:54;0.00;0.00;0.62;0.00;0.00;0.62;2.63;2.43;;;18.00;23.80;;;;;;2270043;61;20357;-55
2021/12/23 07:23:38;0.00;0.00;0.62;0.00;0.00;0.62;2.83;2.53;;;18.00;23.80;;;;;;2269862;61;20363;-57
2021/12/23 07:26:23;0.00;0.00;0.62;0.00;0.00;0.62;2.80;2.17;;;18.10;23.80;;;;;;2268428;61;20422;-54
2021/12/23 07:29:09;0.00;0.00;0.62;0.00;0.00;0.62;4.13;2.97;;;18.10;23.80;;;;;;2269931;61;20606;-56
2021/12/23 07:31:53;0.00;0.00;0.62;0.00;0.00;0.62;2.63;2.43;;;18.10;24.30;;;;;;2269493;61;20723;-57
2021/12/23 07:34:40;0.00;0.00;0.62;0.00;0.00;0.62;2.53;2.07;;;18.10;23.80;;;;;;2269204;61;20480;-57
2021/12/23 07:37:24;0.00;0.00;0.62;0.00;0.00;0.62;2.60;2.20;;;18.10;23.80;;;;;;2269751;61;20790;-55
2021/12/23 07:40:14;0.00;0.00;0.62;0.00;0.00;0.62;2.60;2.17;;;18.10;23.80;;;;;;2268466;61;20368;-55
2021/12/23 07:43:09;0.00;0.00;0.62;0.00;0.00;0.62;2.60;2.27;;;18.20;23.80;;;;;;2269976;61;20371;-57
2021/12/23 07:45:56;0.00;0.00;0.62;0.00;0.00;0.62;2.47;2.27;;;18.10;23.80;;;;;;2269614;61;20375;-55
2021/12/23 07:48:41;0.00;0.00;0.62;0.00;0.00;0.62;2.60;2.40;;;18.20;23.80;;;;;;2268654;61;20365;-54
2021/12/23 07:51:26;0.00;0.00;0.62;0.00;0.00;0.62;2.47;2.27;;;18.20;23.80;;;;;;2269617;61;20356;-55
2021/12/23 07:54:12;0.00;0.00;0.62;0.00;0.00;0.62;2.33;1.90;;;18.20;23.80;;;;;;2269171;61;20384;-55
2021/12/23 07:56:56;0.00;0.00;0.62;0.00;0.00;0.62;2.63;2.40;;;18.20;23.80;;;;;;2270072;61;20379;-57
2021/12/23 07:59:41;0.00;0.00;0.62;0.00;0.00;0.62;2.27;2.07;;;18.20;23.80;;;;;;2270379;61;20402;-54
2021/12/23 08:03:11;0.00;0.00;0.62;0.00;0.00;0.62;2.80;2.53;;;18.20;23.80;;;;;;2269182;61;20356;-57
2021/12/23 08:05:56;0.00;0.00;0.62;0.00;0.00;0.62;3.23;2.40;;;18.20;23.70;;;;;;2270307;61;20378;-56
2021/12/23 08:08:41;0.00;0.00;0.62;0.00;0.00;0.62;2.97;2.57;;;18.20;23.70;;;;;;2270595;61;20439;-56
2021/12/23 08:11:25;0.00;0.00;0.62;0.00;0.00;0.62;2.13;1.77;;;18.20;23.70;;;;;;2269729;61;20356;-57
2021/12/23 08:14:10;0.00;0.00;0.62;0.00;0.00;0.62;2.50;2.30;;;18.20;23.80;;;;;;2270337;61;20455;-55
2021/12/23 08:17:09;0.00;0.00;0.62;0.00;0.00;0.62;3.20;2.63;;;18.20;23.80;;;;;;2269359;61;20374;-57
2021/12/23 08:19:55;0.00;0.00;0.62;0.00;0.00;0.62;2.17;1.97;;;18.20;23.70;;;;;;2270416;61;20363;-57
2021/12/23 08:22:40;0.00;0.00;0.62;0.00;0.00;0.62;2.47;2.20;;;18.20;23.70;;;;;;2270545;61;20579;-58
2021/12/23 08:25:26;0.00;0.00;0.62;0.00;0.00;0.62;2.37;1.80;;;18.20;23.70;;;;;;2269029;61;20543;-57
2021/12/23 08:28:11;0.00;0.00;0.62;0.00;0.00;0.62;2.30;2.00;;;18.30;23.80;;;;;;2270326;61;20359;-59
2021/12/23 08:30:56;0.00;0.00;0.62;0.00;0.00;0.62;3.00;2.27;;;18.20;23.70;;;;;;2270455;61;20356;-57
2021/12/23 08:33:40;0.00;0.00;0.62;0.00;0.00;0.62;2.27;1.80;;;18.30;23.80;;;;;;2269551;61;20415;-56
2021/12/23 08:37:35;0.00;0.00;0.62;0.00;0.00;0.62;2.87;2.57;;;18.30;23.80;;;;;;2270245;61;20395;-54
2021/12/23 08:40:39;0.00;0.00;0.62;0.00;0.00;0.62;2.10;1.50;;;18.30;23.80;;;;;;2268970;61;20410;-55
2021/12/23 08:43:23;0.00;0.00;0.62;0.00;0.00;0.62;2.10;1.70;;;18.30;23.80;;;;;;2270402;61;20505;-56
2021/12/23 08:46:08;0.00;0.00;0.62;0.00;0.00;0.62;2.23;1.70;;;18.30;23.80;;;;;;2269688;61;20372;-58
2021/12/23 08:48:53;0.00;0.00;0.62;0.00;0.00;0.62;2.57;2.23;;;18.30;23.80;;;;;;2270100;61;20364;-54
2021/12/23 08:51:38;0.00;0.00;0.62;0.00;0.00;0.62;2.60;2.00;;;18.30;23.80;;;;;;2270222;61;20359;-58
2021/12/23 08:54:22;0.00;0.00;0.62;0.00;0.00;0.62;2.07;1.87;;;18.30;23.80;;;;;;2268990;61;20585;-57
2021/12/23 08:57:09;0.00;0.00;0.62;0.00;0.00;0.62;2.33;1.87;;;18.30;23.80;;;;;;2270307;61;20376;-56
2021/12/23 08:59:53;0.00;0.00;0.62;0.00;0.00;0.62;2.33;1.90;;;18.30;23.80;;;;;;2270385;61;20367;-57
2021/12/23 09:02:39;0.00;0.00;0.62;0.00;0.00;0.62;2.90;2.03;;;18.30;23.80;;;;;;2269074;61;20356;-56
2021/12/23 09:05:23;0.00;0.00;0.62;0.00;0.00;0.62;2.80;2.20;;;18.30;23.80;;;;;;2270231;61;20398;-56
2021/12/23 09:08:09;0.00;0.00;0.62;0.00;0.00;0.62;2.83;2.40;;;18.40;23.80;;;;;;2270015;61;20384;-59
2021/12/23 09:10:55;0.00;0.00;0.62;0.00;0.00;0.62;2.30;1.87;;;18.30;23.70;;;;;;2269745;61;20440;-54
2021/12/23 09:13:41;0.00;0.00;0.62;0.00;0.00;0.62;3.07;2.07;;;18.30;23.80;;;;;;2270324;61;20589;-57
2021/12/23 09:16:27;0.00;0.00;0.62;0.00;0.00;0.62;2.43;2.07;;;18.30;23.70;;;;;;2268756;61;20756;-58
2021/12/23 09:19:14;0.00;0.00;0.62;0.00;0.00;0.62;2.70;2.20;;;18.30;23.70;;;;;;2270410;61;20378;-56
2021/12/23 09:21:59;0.00;0.00;0.62;0.00;0.00;0.62;3.67;2.10;;;18.30;23.70;;;;;;2270453;61;20756;-56
2021/12/23 09:24:46;0.00;0.00;0.62;0.00;0.00;0.62;2.90;2.07;;;18.30;23.70;;;;;;2268823;61;20743;-53
2021/12/23 09:27:54;0.00;0.00;0.62;0.00;0.00;0.62;2.90;2.10;;;18.30;23.70;;;;;;2270255;61;20375;-55
2021/12/23 09:34:40;0.00;0.00;0.62;0.00;0.00;0.62;3.30;1.90;;;18.30;23.70;;;;;;2270175;61;20403;-56
2021/12/23 09:42:49;0.00;0.00;0.62;0.00;0.00;0.62;2.20;1.80;;;18.30;23.70;;;;;;2269186;61;20559;-58
2021/12/23 09:45:35;0.00;0.00;0.62;0.00;0.00;0.62;3.63;2.37;;;18.30;23.70;;;;;;2269842;61;20689;-57
2021/12/23 09:48:21;0.00;0.00;0.62;0.00;0.00;0.62;3.00;2.07;;;18.30;23.70;;;;;;2270269;61;20372;-58
2021/12/23 09:51:10;0.00;0.00;0.62;0.00;0.00;0.62;2.67;2.43;;;18.30;23.80;;;;;;2270294;61;20395;-58
2021/12/23 09:53:57;0.00;0.00;0.62;0.00;0.00;0.62;2.63;2.27;;;18.30;23.80;;;;;;2268896;61;20427;-54
2021/12/23 09:56:42;0.00;0.00;0.62;0.00;0.00;0.62;2.77;1.97;;;18.30;23.70;;;;;;2270110;61;20423;-56
2021/12/23 09:59:28;0.00;0.00;0.62;0.00;0.00;0.62;2.67;1.97;;;18.40;23.80;;;;;;2270179;61;20626;-59
2021/12/23 10:02:12;0.00;0.00;0.62;0.00;0.00;0.62;2.83;2.30;;;18.30;23.70;;;;;;2268961;61;20867;-58
2021/12/23 10:04:57;0.00;0.00;0.62;0.00;0.00;0.62;2.30;2.00;;;18.40;23.80;;;;;;2270130;61;20584;-59
2021/12/23 10:07:45;0.00;0.00;0.62;0.00;0.00;0.62;2.93;2.10;;;18.40;23.80;;;;;;2269382;61;20544;-59
2021/12/23 10:10:39;0.00;0.00;0.62;0.00;0.00;0.62;2.37;2.10;;;18.40;23.80;;;;;;2270182;61;20364;-56
2021/12/23 10:37:22;0.00;0.00;0.62;0.00;0.00;0.62;2.53;2.00;;;18.40;23.80;;;;;;2269146;61;20380;-57
2021/12/23 10:40:14;0.00;0.00;0.62;0.00;0.00;0.62;2.40;2.20;;;18.40;23.80;;;;;;2269976;61;20380;-59
2021/12/23 10:42:59;0.00;0.00;0.62;0.00;0.00;0.62;1.93;1.63;;;18.40;23.80;;;;;;2269998;61;20769;-56
2021/12/23 10:45:55;0.00;0.00;0.62;0.00;0.00;0.62;2.30;2.10;;;18.40;23.80;;;;;;2270056;61;20410;-57
2021/12/23 10:48:48;0.00;0.00;0.62;0.00;0.00;0.62;2.57;2.10;;;18.40;23.80;;;;;;2270045;61;20360;-53
2021/12/23 10:52:09;0.00;0.00;0.62;0.00;0.00;0.62;2.73;2.00;;;18.40;23.80;;;;;;2269978;61;20356;-56
2021/12/23 11:00:46;0.00;0.00;0.62;0.00;0.00;0.62;2.40;1.70;;;18.40;23.80;;;;;;2268609;61;20352;-57
2021/12/23 11:03:37;0.00;0.00;0.62;0.00;0.00;0.62;2.43;1.60;;;18.40;23.80;;;;;;2269979;61;20770;-56
2021/12/23 11:06:33;0.00;0.00;0.62;0.00;0.00;0.62;2.70;1.90;;;18.50;23.90;;;;;;2269803;61;20441;-58
2021/12/23 11:09:36;0.00;0.00;0.62;0.00;0.00;0.62;2.07;1.87;;;18.50;23.90;;;;;;2269398;61;20390;-58
2021/12/23 11:40:25;0.00;0.00;0.62;0.00;0.00;0.62;2.10;1.90;;;18.50;23.80;;;;;;2270033;61;20746;-56
2021/12/23 11:46:01;0.00;0.00;0.62;0.00;0.00;0.62;2.50;2.30;;;18.50;23.90;;;;;;2268917;61;20387;-55
2021/12/23 11:48:47;0.00;0.00;0.62;0.00;0.00;0.62;2.40;1.80;;;18.50;23.80;;;;;;2269953;61;20355;-53
2021/12/23 11:51:54;0.00;0.00;0.62;0.00;0.00;0.62;2.57;1.80;;;18.50;23.80;;;;;;2268961;61;20356;-56
2021/12/23 11:54:41;0.00;0.00;0.62;0.00;0.00;0.62;1.80;1.50;;;18.50;23.80;;;;;;2269204;61;20609;-52
2021/12/23 11:57:32;0.00;0.00;0.62;0.00;0.00;0.62;2.40;1.90;;;18.50;23.80;;;;;;2269793;61;20384;-55
2021/12/23 12:00:28;0.00;0.00;0.62;0.00;0.00;0.62;2.17;1.83;;;18.50;23.90;;;;;;2268979;61;20445;-58
2021/12/23 12:03:15;0.00;0.00;0.62;0.00;0.00;0.62;2.10;1.77;;;18.50;23.90;;;;;;2269920;61;20769;-58
2021/12/23 12:06:15;0.00;0.00;0.62;0.00;0.00;0.62;2.90;2.27;;;18.50;23.80;;;;;;2269202;61;20725;-55
2021/12/23 12:09:16;0.00;0.00;0.62;0.00;0.00;0.62;2.30;1.70;;;18.50;23.80;;;;;;2269889;61;20356;-55
2021/12/23 12:12:08;0.00;0.00;0.62;0.00;0.00;0.62;2.87;2.30;;;18.50;23.80;;;;;;2269797;61;20387;-57
2021/12/23 12:14:55;0.00;0.00;0.62;0.00;0.00;0.62;2.20;1.93;;;18.50;23.80;;;;;;2268646;61;20383;-55
2021/12/23 12:17:41;0.00;0.00;0.62;0.00;0.00;0.62;2.10;1.73;;;18.50;23.80;;;;;;2269907;61;20376;-56
2021/12/23 12:20:39;0.00;0.00;0.62;0.00;0.00;0.62;3.30;2.10;;;18.50;23.80;;;;;;2269912;61;20390;-59
2021/12/23 12:23:32;0.00;0.00;0.62;0.00;0.00;0.62;1.70;1.50;;;18.50;23.80;;;;;;2269734;61;20356;-59
2021/12/23 12:26:26;0.00;0.00;0.62;0.00;0.00;0.62;2.37;2.10;;;18.50;23.80;;;;;;2269646;61;20418;-53
2021/12/23 12:29:10;0.00;0.00;0.62;0.00;0.00;0.62;2.40;2.00;;;18.50;23.80;;;;;;2268904;61;20394;-55
2021/12/23 12:31:54;0.00;0.00;0.62;0.00;0.00;0.62;2.60;2.10;;;18.50;23.80;;;;;;2269646;61;20360;-55
2021/12/23 12:34:39;0.00;0.00;0.62;0.00;0.00;0.62;2.23;1.73;;;18.50;23.80;;;;;;2269316;61;20607;-59
2021/12/23 12:37:39;0.00;0.00;0.62;0.00;0.00;0.62;2.23;1.83;;;18.50;23.80;;;;;;2268709;61;20628;-54
2021/12/23 12:40:55;0.00;0.00;0.62;0.00;0.00;0.62;2.73;2.20;;;18.50;23.80;;;;;;2269769;61;20356;-58